sensor_id;sensor_type;location;lat;lon;timestamp;P1;durP1;ratioP1;P2;durP2;ratioP2
49784;SDS011;35679;38.732;-121.358;2023-08-24T00:00:46;4.40;;;4.10;;
49784;SDS011;35679;38.732;-121.358;2023-08-24T00:03:36;3.97;;;3.67;;
49784;SDS011;35679;38.732;-121.358;2023-08-24T00:06:30;4.13;;;3.83;;
49784;SDS011;35679;38.732;-121.358;2023-08-24T00:09:19;5.85;;;3.80;;
49784;SDS011;35679;38.732;-121.358;2023-08-24T00:12:09;4.50;;;4.10;;
49784;SDS011;35679;38.732;-121.358;2023-08-24T00:14:58;4.63;;;4.22;;
49784;SDS011;35679;38.732;-121.358;2023-08-24T00:17:48;4.60;;;4.20;;
49784;SDS011;35679;38.732;-121.358;2023-08-24T00:20:39;4.22;;;3.83;;
49784;SDS011;35679;38.732;-121.358;2023-08-24T00:23:28;4.40;;;4.07;;
49784;SDS011;35679;38.732;-121.358;2023-08-24T00:26:17;4.15;;;3.85;;
49784;SDS011;35679;38.732;-121.358;2023-08-24T00:29:07;4.40;;;4.00;;
49784;SDS011;35679;38.732;-121.358;2023-08-24T00:31:56;4.32;;;4.03;;
49784;SDS011;35679;38.732;-121.358;2023-08-24T00:34:46;4.60;;;4.15;;
49784;SDS011;35679;38.732;-121.358;2023-08-24T00:37:35;4.95;;;4.40;;
49784;SDS011;35679;38.732;-121.358;2023-08-24T00:40:25;4.40;;;3.90;;
49784;SDS011;35679;38.732;-121.358;2023-08-24T00:43:15;4.32;;;4.03;;
49784;SDS011;35679;38.732;-121.358;2023-08-24T00:46:04;4.35;;;3.95;;
49784;SDS011;35679;38.732;-121.358;2023-08-24T00:48:54;4.10;;;3.80;;
49784;SDS011;35679;38.732;-121.358;2023-08-24T00:51:46;4.15;;;3.83;;
49784;SDS011;35679;38.732;-121.358;2023-08-24T00:54:36;4.15;;;3.83;;
49784;SDS011;35679;38.732;-121.358;2023-08-24T00:57:27;4.23;;;3.83;;
49784;SDS011;35679;38.732;-121.358;2023-08-24T01:00:17;4.57;;;4.25;;
49784;SDS011;35679;38.732;-121.358;2023-08-24T01:03:06;4.70;;;4.30;;
49784;SDS011;35679;38.732;-121.358;2023-08-24T01:05:56;4.50;;;4.10;;
49784;SDS011;35679;38.732;-121.358;2023-08-24T01:08:45;4.40;;;4.10;;
49784;SDS011;35679;38.732;-121.358;2023-08-24T01:11:39;4.15;;;3.85;;
49784;SDS011;35679;38.732;-121.358;2023-08-24T01:14:46;4.68;;;4.35;;
49784;SDS011;35679;38.732;-121.358;2023-08-24T01:17:44;4.45;;;4.15;;
49784;SDS011;35679;38.732;-121.358;2023-08-24T01:20:36;4.35;;;3.97;;
49784;SDS011;35679;38.732;-121.358;2023-08-24T01:23:43;4.40;;;4.10;;
49784;SDS011;35679;38.732;-121.358;2023-08-24T01:26:40;4.28;;;3.95;;
49784;SDS011;35679;38.732;-121.358;2023-08-24T01:29:31;4.40;;;4.00;;
49784;SDS011;35679;38.732;-121.358;2023-08-24T01:32:20;4.45;;;4.05;;
49784;SDS011;35679;38.732;-121.358;2023-08-24T01:35:10;4.40;;;4.10;;
49784;SDS011;35679;38.732;-121.358;2023-08-24T01:37:59;5.10;;;4.15;;
49784;SDS011;35679;38.732;-121.358;2023-08-24T01:40:57;4.40;;;4.10;;
49784;SDS011;35679;38.732;-121.358;2023-08-24T01:43:55;4.03;;;3.72;;
49784;SDS011;35679;38.732;-121.358;2023-08-24T01:46:49;4.35;;;3.95;;
49784;SDS011;35679;38.732;-121.358;2023-08-24T01:49:40;4.25;;;3.85;;
49784;SDS011;35679;38.732;-121.358;2023-08-24T01:52:31;4.78;;;4.38;;
49784;SDS011;35679;38.732;-121.358;2023-08-24T01:55:23;4.05;;;3.75;;
49784;SDS011;35679;38.732;-121.358;2023-08-24T01:58:12;4.47;;;4.10;;
49784;SDS011;35679;38.732;-121.358;2023-08-24T02:01:02;4.30;;;4.00;;
49784;SDS011;35679;38.732;-121.358;2023-08-24T02:03:51;4.20;;;3.90;;
49784;SDS011;35679;38.732;-121.358;2023-08-24T02:06:41;3.90;;;3.60;;
49784;SDS011;35679;38.732;-121.358;2023-08-24T02:09:30;4.05;;;3.75;;
49784;SDS011;35679;38.732;-121.358;2023-08-24T02:12:20;4.20;;;3.90;;
49784;SDS011;35679;38.732;-121.358;2023-08-24T02:15:09;4.20;;;3.90;;
49784;SDS011;35679;38.732;-121.358;2023-08-24T02:17:58;4.57;;;4.18;;
49784;SDS011;35679;38.732;-121.358;2023-08-24T02:20:48;4.22;;;3.92;;
49784;SDS011;35679;38.732;-121.358;2023-08-24T02:23:38;4.00;;;3.70;;
49784;SDS011;35679;38.732;-121.358;2023-08-24T02:26:28;4.43;;;4.03;;
49784;SDS011;35679;38.732;-121.358;2023-08-24T02:29:17;4.05;;;3.75;;
49784;SDS011;35679;38.732;-121.358;2023-08-24T02:32:08;4.30;;;3.90;;
49784;SDS011;35679;38.732;-121.358;2023-08-24T02:34:58;4.05;;;3.75;;
49784;SDS011;35679;38.732;-121.358;2023-08-24T02:37:50;4.10;;;3.80;;
49784;SDS011;35679;38.732;-121.358;2023-08-24T02:40:40;4.50;;;4.13;;
49784;SDS011;35679;38.732;-121.358;2023-08-24T02:43:29;4.28;;;3.97;;
49784;SDS011;35679;38.732;-121.358;2023-08-24T02:46:20;4.10;;;3.80;;
49784;SDS011;35679;38.732;-121.358;2023-08-24T02:49:15;4.43;;;4.05;;
49784;SDS011;35679;38.732;-121.358;2023-08-24T02:52:04;4.50;;;4.10;;
49784;SDS011;35679;38.732;-121.358;2023-08-24T02:54:55;4.38;;;4.07;;
49784;SDS011;35679;38.732;-121.358;2023-08-24T02:57:44;4.20;;;3.90;;
49784;SDS011;35679;38.732;-121.358;2023-08-24T03:00:37;3.90;;;3.60;;
49784;SDS011;35679;38.732;-121.358;2023-08-24T03:03:27;4.28;;;3.97;;
49784;SDS011;35679;38.732;-121.358;2023-08-24T03:06:17;3.90;;;3.60;;
49784;SDS011;35679;38.732;-121.358;2023-08-24T03:09:06;3.72;;;3.42;;
49784;SDS011;35679;38.732;-121.358;2023-08-24T03:11:56;3.80;;;3.50;;
49784;SDS011;35679;38.732;-121.358;2023-08-24T03:14:45;4.10;;;3.80;;
49784;SDS011;35679;38.732;-121.358;2023-08-24T03:17:35;4.00;;;3.70;;
49784;SDS011;35679;38.732;-121.358;2023-08-24T03:20:25;4.13;;;3.83;;
49784;SDS011;35679;38.732;-121.358;2023-08-24T03:23:17;4.07;;;3.78;;
49784;SDS011;35679;38.732;-121.358;2023-08-24T03:26:07;4.15;;;3.83;;
49784;SDS011;35679;38.732;-121.358;2023-08-24T03:28:56;4.15;;;3.85;;
49784;SDS011;35679;38.732;-121.358;2023-08-24T03:31:46;3.83;;;3.53;;
49784;SDS011;35679;38.732;-121.358;2023-08-24T03:34:35;3.70;;;3.40;;
49784;SDS011;35679;38.732;-121.358;2023-08-24T03:37:25;3.92;;;3.60;;
49784;SDS011;35679;38.732;-121.358;2023-08-24T03:40:14;3.90;;;3.60;;
49784;SDS011;35679;38.732;-121.358;2023-08-24T03:43:04;3.90;;;3.60;;
49784;SDS011;35679;38.732;-121.358;2023-08-24T03:45:53;5.43;;;5.03;;
49784;SDS011;35679;38.732;-121.358;2023-08-24T03:48:43;4.82;;;4.53;;
49784;SDS011;35679;38.732;-121.358;2023-08-24T03:51:32;5.10;;;4.70;;
49784;SDS011;35679;38.732;-121.358;2023-08-24T03:54:22;4.97;;;4.57;;
49784;SDS011;35679;38.732;-121.358;2023-08-24T03:57:11;4.70;;;4.40;;
49784;SDS011;35679;38.732;-121.358;2023-08-24T04:00:01;4.70;;;4.40;;
49784;SDS011;35679;38.732;-121.358;2023-08-24T04:02:59;4.82;;;4.53;;
49784;SDS011;35679;38.732;-121.358;2023-08-24T04:05:51;4.65;;;4.22;;
49784;SDS011;35679;38.732;-121.358;2023-08-24T04:08:40;4.68;;;4.38;;
49784;SDS011;35679;38.732;-121.358;2023-08-24T04:11:29;4.95;;;4.50;;
49784;SDS011;35679;38.732;-121.358;2023-08-24T04:14:19;4.85;;;4.55;;
49784;SDS011;35679;38.732;-121.358;2023-08-24T04:17:08;4.10;;;3.80;;
49784;SDS011;35679;38.732;-121.358;2023-08-24T04:19:58;3.78;;;3.47;;
49784;SDS011;35679;38.732;-121.358;2023-08-24T04:22:47;5.38;;;3.70;;
49784;SDS011;35679;38.732;-121.358;2023-08-24T04:25:39;5.10;;;3.70;;
49784;SDS011;35679;38.732;-121.358;2023-08-24T04:31:18;4.25;;;3.95;;
49784;SDS011;35679;38.732;-121.358;2023-08-24T04:34:07;5.13;;;4.72;;
49784;SDS011;35679;38.732;-121.358;2023-08-24T04:36:57;3.60;;;3.40;;
49784;SDS011;35679;38.732;-121.358;2023-08-24T04:39:47;3.78;;;3.47;;
49784;SDS011;35679;38.732;-121.358;2023-08-24T04:42:36;3.60;;;3.30;;
49784;SDS011;35679;38.732;-121.358;2023-08-24T04:45:26;3.53;;;3.22;;
49784;SDS011;35679;38.732;-121.358;2023-08-24T04:48:15;3.58;;;3.30;;
49784;SDS011;35679;38.732;-121.358;2023-08-24T04:51:05;3.80;;;3.50;;
49784;SDS011;35679;38.732;-121.358;2023-08-24T04:53:54;3.88;;;3.58;;
49784;SDS011;35679;38.732;-121.358;2023-08-24T04:56:43;4.05;;;3.22;;
49784;SDS011;35679;38.732;-121.358;2023-08-24T04:59:33;3.90;;;3.35;;
49784;SDS011;35679;38.732;-121.358;2023-08-24T05:02:22;3.50;;;3.30;;
49784;SDS011;35679;38.732;-121.358;2023-08-24T05:05:12;3.65;;;3.20;;
49784;SDS011;35679;38.732;-121.358;2023-08-24T05:08:05;3.97;;;2.80;;
49784;SDS011;35679;38.732;-121.358;2023-08-24T05:10:59;3.38;;;3.08;;
49784;SDS011;35679;38.732;-121.358;2023-08-24T05:13:49;3.42;;;3.13;;
49784;SDS011;35679;38.732;-121.358;2023-08-24T05:16:38;3.60;;;3.13;;
49784;SDS011;35679;38.732;-121.358;2023-08-24T05:19:28;4.60;;;3.15;;
49784;SDS011;35679;38.732;-121.358;2023-08-24T05:22:18;3.47;;;3.15;;
49784;SDS011;35679;38.732;-121.358;2023-08-24T05:25:07;3.83;;;3.40;;
49784;SDS011;35679;38.732;-121.358;2023-08-24T05:27:57;3.60;;;3.30;;
49784;SDS011;35679;38.732;-121.358;2023-08-24T05:30:46;3.50;;;3.20;;
49784;SDS011;35679;38.732;-121.358;2023-08-24T05:33:36;3.53;;;2.92;;
49784;SDS011;35679;38.732;-121.358;2023-08-24T05:36:25;3.45;;;3.15;;
49784;SDS011;35679;38.732;-121.358;2023-08-24T05:39:14;3.25;;;2.95;;
49784;SDS011;35679;38.732;-121.358;2023-08-24T05:42:04;3.50;;;3.20;;
49784;SDS011;35679;38.732;-121.358;2023-08-24T05:44:54;3.95;;;3.30;;
49784;SDS011;35679;38.732;-121.358;2023-08-24T05:47:43;3.67;;;3.38;;
49784;SDS011;35679;38.732;-121.358;2023-08-24T05:50:33;3.85;;;3.45;;
49784;SDS011;35679;38.732;-121.358;2023-08-24T05:53:23;4.22;;;3.40;;
49784;SDS011;35679;38.732;-121.358;2023-08-24T05:56:12;4.53;;;3.30;;
49784;SDS011;35679;38.732;-121.358;2023-08-24T05:59:01;3.38;;;3.13;;
49784;SDS011;35679;38.732;-121.358;2023-08-24T06:01:52;5.00;;;3.40;;
49784;SDS011;35679;38.732;-121.358;2023-08-24T06:04:42;3.97;;;3.22;;
49784;SDS011;35679;38.732;-121.358;2023-08-24T06:07:31;3.22;;;3.03;;
49784;SDS011;35679;38.732;-121.358;2023-08-24T06:10:21;3.70;;;3.38;;
49784;SDS011;35679;38.732;-121.358;2023-08-24T06:13:11;3.78;;;3.38;;
49784;SDS011;35679;38.732;-121.358;2023-08-24T06:16:00;3.63;;;3.28;;
49784;SDS011;35679;38.732;-121.358;2023-08-24T06:18:50;3.47;;;3.17;;
49784;SDS011;35679;38.732;-121.358;2023-08-24T06:21:39;3.10;;;2.80;;
49784;SDS011;35679;38.732;-121.358;2023-08-24T06:24:29;3.92;;;3.25;;
49784;SDS011;35679;38.732;-121.358;2023-08-24T06:27:19;3.50;;;3.20;;
49784;SDS011;35679;38.732;-121.358;2023-08-24T06:30:08;4.05;;;3.17;;
49784;SDS011;35679;38.732;-121.358;2023-08-24T06:32:58;3.53;;;3.20;;
49784;SDS011;35679;38.732;-121.358;2023-08-24T06:35:48;3.45;;;3.15;;
49784;SDS011;35679;38.732;-121.358;2023-08-24T06:38:37;3.35;;;3.05;;
49784;SDS011;35679;38.732;-121.358;2023-08-24T06:41:26;3.40;;;3.10;;
49784;SDS011;35679;38.732;-121.358;2023-08-24T06:44:18;3.53;;;3.22;;
49784;SDS011;35679;38.732;-121.358;2023-08-24T06:47:07;3.60;;;3.30;;
49784;SDS011;35679;38.732;-121.358;2023-08-24T06:49:57;3.50;;;3.20;;
49784;SDS011;35679;38.732;-121.358;2023-08-24T06:52:46;3.63;;;3.30;;
49784;SDS011;35679;38.732;-121.358;2023-08-24T06:55:36;4.30;;;3.90;;
49784;SDS011;35679;38.732;-121.358;2023-08-24T06:58:25;3.47;;;3.17;;
49784;SDS011;35679;38.732;-121.358;2023-08-24T07:01:15;3.92;;;3.58;;
49784;SDS011;35679;38.732;-121.358;2023-08-24T07:04:04;3.30;;;3.10;;
49784;SDS011;35679;38.732;-121.358;2023-08-24T07:06:54;3.67;;;3.33;;
49784;SDS011;35679;38.732;-121.358;2023-08-24T07:09:43;3.53;;;3.22;;
49784;SDS011;35679;38.732;-121.358;2023-08-24T07:12:33;3.58;;;3.28;;
49784;SDS011;35679;38.732;-121.358;2023-08-24T07:15:22;3.78;;;3.47;;
49784;SDS011;35679;38.732;-121.358;2023-08-24T07:18:11;4.03;;;3.50;;
49784;SDS011;35679;38.732;-121.358;2023-08-24T07:21:01;3.70;;;3.30;;
49784;SDS011;35679;38.732;-121.358;2023-08-24T07:23:51;4.57;;;3.50;;
49784;SDS011;35679;38.732;-121.358;2023-08-24T07:26:40;3.60;;;3.30;;
49784;SDS011;35679;38.732;-121.358;2023-08-24T07:29:31;3.60;;;3.30;;
49784;SDS011;35679;38.732;-121.358;2023-08-24T07:32:20;3.78;;;3.40;;
49784;SDS011;35679;38.732;-121.358;2023-08-24T07:35:10;3.75;;;3.45;;
49784;SDS011;35679;38.732;-121.358;2023-08-24T07:37:59;3.60;;;3.30;;
49784;SDS011;35679;38.732;-121.358;2023-08-24T07:40:49;3.70;;;3.40;;
49784;SDS011;35679;38.732;-121.358;2023-08-24T07:43:38;3.70;;;3.40;;
49784;SDS011;35679;38.732;-121.358;2023-08-24T07:46:28;4.38;;;3.80;;
49784;SDS011;35679;38.732;-121.358;2023-08-24T07:49:17;3.80;;;3.50;;
49784;SDS011;35679;38.732;-121.358;2023-08-24T07:55:56;4.32;;;3.40;;
49784;SDS011;35679;38.732;-121.358;2023-08-24T07:58:46;4.25;;;3.63;;
49784;SDS011;35679;38.732;-121.358;2023-08-24T08:01:35;3.92;;;3.60;;
49784;SDS011;35679;38.732;-121.358;2023-08-24T08:04:25;3.80;;;3.50;;
49784;SDS011;35679;38.732;-121.358;2023-08-24T08:07:15;4.78;;;3.78;;
49784;SDS011;35679;38.732;-121.358;2023-08-24T08:10:04;4.15;;;3.60;;
49784;SDS011;35679;38.732;-121.358;2023-08-24T08:12:55;4.90;;;3.70;;
49784;SDS011;35679;38.732;-121.358;2023-08-24T08:15:44;3.60;;;3.15;;
49784;SDS011;35679;38.732;-121.358;2023-08-24T08:18:35;3.55;;;3.25;;
49784;SDS011;35679;38.732;-121.358;2023-08-24T08:21:25;4.47;;;3.58;;
49784;SDS011;35679;38.732;-121.358;2023-08-24T08:24:14;3.88;;;3.53;;
49784;SDS011;35679;38.732;-121.358;2023-08-24T08:27:12;4.05;;;3.75;;
49784;SDS011;35679;38.732;-121.358;2023-08-24T08:30:01;5.45;;;3.67;;
49784;SDS011;35679;38.732;-121.358;2023-08-24T08:32:53;4.18;;;3.83;;
49784;SDS011;35679;38.732;-121.358;2023-08-24T08:35:43;4.05;;;3.75;;
49784;SDS011;35679;38.732;-121.358;2023-08-24T08:38:32;3.90;;;3.60;;
49784;SDS011;35679;38.732;-121.358;2023-08-24T08:41:22;4.78;;;3.42;;
49784;SDS011;35679;38.732;-121.358;2023-08-24T08:44:16;3.90;;;3.60;;
49784;SDS011;35679;38.732;-121.358;2023-08-24T08:47:06;4.28;;;3.88;;
49784;SDS011;35679;38.732;-121.358;2023-08-24T08:49:56;4.30;;;3.50;;
49784;SDS011;35679;38.732;-121.358;2023-08-24T08:52:46;4.07;;;3.75;;
49784;SDS011;35679;38.732;-121.358;2023-08-24T08:55:36;3.88;;;3.58;;
49784;SDS011;35679;38.732;-121.358;2023-08-24T08:58:26;3.88;;;3.58;;
49784;SDS011;35679;38.732;-121.358;2023-08-24T09:01:16;4.40;;;4.00;;
49784;SDS011;35679;38.732;-121.358;2023-08-24T09:04:06;4.60;;;3.50;;
49784;SDS011;35679;38.732;-121.358;2023-08-24T09:06:56;4.10;;;3.80;;
49784;SDS011;35679;38.732;-121.358;2023-08-24T09:09:45;3.90;;;3.40;;
49784;SDS011;35679;38.732;-121.358;2023-08-24T09:12:35;4.32;;;3.55;;
49784;SDS011;35679;38.732;-121.358;2023-08-24T09:15:25;7.47;;;3.83;;
49784;SDS011;35679;38.732;-121.358;2023-08-24T09:18:19;5.70;;;3.80;;
49784;SDS011;35679;38.732;-121.358;2023-08-24T09:21:12;5.47;;;3.60;;
49784;SDS011;35679;38.732;-121.358;2023-08-24T09:24:03;5.13;;;3.83;;
49784;SDS011;35679;38.732;-121.358;2023-08-24T09:26:53;4.30;;;3.90;;
49784;SDS011;35679;38.732;-121.358;2023-08-24T09:29:42;3.95;;;3.55;;
49784;SDS011;35679;38.732;-121.358;2023-08-24T09:32:32;4.10;;;3.70;;
49784;SDS011;35679;38.732;-121.358;2023-08-24T09:35:21;4.15;;;3.75;;
49784;SDS011;35679;38.732;-121.358;2023-08-24T09:38:18;4.13;;;3.72;;
49784;SDS011;35679;38.732;-121.358;2023-08-24T09:41:08;6.43;;;4.15;;
49784;SDS011;35679;38.732;-121.358;2023-08-24T09:44:02;7.10;;;4.30;;
49784;SDS011;35679;38.732;-121.358;2023-08-24T09:46:53;4.68;;;3.80;;
49784;SDS011;35679;38.732;-121.358;2023-08-24T09:49:43;4.13;;;3.50;;
49784;SDS011;35679;38.732;-121.358;2023-08-24T09:52:33;4.68;;;3.70;;
49784;SDS011;35679;38.732;-121.358;2023-08-24T09:55:23;4.10;;;3.70;;
49784;SDS011;35679;38.732;-121.358;2023-08-24T09:58:19;5.85;;;3.95;;
49784;SDS011;35679;38.732;-121.358;2023-08-24T10:01:10;4.35;;;3.92;;
49784;SDS011;35679;38.732;-121.358;2023-08-24T10:04:00;3.63;;;3.33;;
49784;SDS011;35679;38.732;-121.358;2023-08-24T10:07:05;4.05;;;3.65;;
49784;SDS011;35679;38.732;-121.358;2023-08-24T10:10:03;4.35;;;3.92;;
49784;SDS011;35679;38.732;-121.358;2023-08-24T10:12:56;5.97;;;4.30;;
49784;SDS011;35679;38.732;-121.358;2023-08-24T10:15:49;4.50;;;3.85;;
49784;SDS011;35679;38.732;-121.358;2023-08-24T10:18:40;4.50;;;4.10;;
49784;SDS011;35679;38.732;-121.358;2023-08-24T10:21:29;4.75;;;3.88;;
49784;SDS011;35679;38.732;-121.358;2023-08-24T10:24:19;5.35;;;3.90;;
49784;SDS011;35679;38.732;-121.358;2023-08-24T10:27:09;4.13;;;3.72;;
49784;SDS011;35679;38.732;-121.358;2023-08-24T10:30:00;4.10;;;3.67;;
49784;SDS011;35679;38.732;-121.358;2023-08-24T10:32:50;4.40;;;4.00;;
49784;SDS011;35679;38.732;-121.358;2023-08-24T10:35:42;5.32;;;3.88;;
49784;SDS011;35679;38.732;-121.358;2023-08-24T10:38:34;4.05;;;3.75;;
49784;SDS011;35679;38.732;-121.358;2023-08-24T10:41:29;4.28;;;3.88;;
49784;SDS011;35679;38.732;-121.358;2023-08-24T10:44:34;4.55;;;4.15;;
49784;SDS011;35679;38.732;-121.358;2023-08-24T10:47:24;4.63;;;4.03;;
49784;SDS011;35679;38.732;-121.358;2023-08-24T10:50:30;4.55;;;3.63;;
49784;SDS011;35679;38.732;-121.358;2023-08-24T10:53:40;4.53;;;4.13;;
49784;SDS011;35679;38.732;-121.358;2023-08-24T10:56:37;4.43;;;3.60;;
49784;SDS011;35679;38.732;-121.358;2023-08-24T10:59:29;5.50;;;4.03;;
49784;SDS011;35679;38.732;-121.358;2023-08-24T11:05:37;8.27;;;4.20;;
49784;SDS011;35679;38.732;-121.358;2023-08-24T11:08:46;5.32;;;4.35;;
49784;SDS011;35679;38.732;-121.358;2023-08-24T11:11:36;4.88;;;4.15;;
49784;SDS011;35679;38.732;-121.358;2023-08-24T11:14:26;6.95;;;4.20;;
49784;SDS011;35679;38.732;-121.358;2023-08-24T11:17:20;4.28;;;3.72;;
49784;SDS011;35679;38.732;-121.358;2023-08-24T11:20:11;4.25;;;3.85;;
49784;SDS011;35679;38.732;-121.358;2023-08-24T11:23:03;6.85;;;4.07;;
49784;SDS011;35679;38.732;-121.358;2023-08-24T11:25:53;5.78;;;3.90;;
49784;SDS011;35679;38.732;-121.358;2023-08-24T11:28:47;6.22;;;3.78;;
49784;SDS011;35679;38.732;-121.358;2023-08-24T11:31:43;9.18;;;4.30;;
49784;SDS011;35679;38.732;-121.358;2023-08-24T11:34:33;5.95;;;4.10;;
49784;SDS011;35679;38.732;-121.358;2023-08-24T11:37:25;5.23;;;3.93;;
49784;SDS011;35679;38.732;-121.358;2023-08-24T11:40:18;4.50;;;3.63;;
49784;SDS011;35679;38.732;-121.358;2023-08-24T11:43:08;5.68;;;3.65;;
49784;SDS011;35679;38.732;-121.358;2023-08-24T11:45:58;5.25;;;3.75;;
49784;SDS011;35679;38.732;-121.358;2023-08-24T11:48:48;5.25;;;3.90;;
49784;SDS011;35679;38.732;-121.358;2023-08-24T11:51:38;4.97;;;4.22;;
49784;SDS011;35679;38.732;-121.358;2023-08-24T11:54:32;5.38;;;4.35;;
49784;SDS011;35679;38.732;-121.358;2023-08-24T11:57:22;5.07;;;4.10;;
49784;SDS011;35679;38.732;-121.358;2023-08-24T12:00:13;6.07;;;4.10;;
49784;SDS011;35679;38.732;-121.358;2023-08-24T12:03:05;7.75;;;4.30;;
49784;SDS011;35679;38.732;-121.358;2023-08-24T12:05:58;7.05;;;4.55;;
49784;SDS011;35679;38.732;-121.358;2023-08-24T12:08:49;6.43;;;3.80;;
49784;SDS011;35679;38.732;-121.358;2023-08-24T12:11:38;5.65;;;4.10;;
49784;SDS011;35679;38.732;-121.358;2023-08-24T12:14:28;10.05;;;4.35;;
49784;SDS011;35679;38.732;-121.358;2023-08-24T12:17:28;4.95;;;4.10;;
49784;SDS011;35679;38.732;-121.358;2023-08-24T12:20:18;5.65;;;4.05;;
49784;SDS011;35679;38.732;-121.358;2023-08-24T12:23:10;6.35;;;3.92;;
49784;SDS011;35679;38.732;-121.358;2023-08-24T12:26:00;3.83;;;3.40;;
49784;SDS011;35679;38.732;-121.358;2023-08-24T12:28:52;4.93;;;4.32;;
49784;SDS011;35679;38.732;-121.358;2023-08-24T12:31:44;6.78;;;4.03;;
49784;SDS011;35679;38.732;-121.358;2023-08-24T12:34:33;11.38;;;5.13;;
49784;SDS011;35679;38.732;-121.358;2023-08-24T12:37:22;10.90;;;4.35;;
49784;SDS011;35679;38.732;-121.358;2023-08-24T12:40:12;5.47;;;3.80;;
49784;SDS011;35679;38.732;-121.358;2023-08-24T12:43:02;6.15;;;3.70;;
49784;SDS011;35679;38.732;-121.358;2023-08-24T12:45:51;6.85;;;3.88;;
49784;SDS011;35679;38.732;-121.358;2023-08-24T12:48:41;8.05;;;4.28;;
49784;SDS011;35679;38.732;-121.358;2023-08-24T12:51:30;8.73;;;4.05;;
49784;SDS011;35679;38.732;-121.358;2023-08-24T12:54:19;7.75;;;4.78;;
49784;SDS011;35679;38.732;-121.358;2023-08-24T12:57:09;8.00;;;4.25;;
49784;SDS011;35679;38.732;-121.358;2023-08-24T12:59:59;6.00;;;4.13;;
49784;SDS011;35679;38.732;-121.358;2023-08-24T13:02:48;4.35;;;3.90;;
49784;SDS011;35679;38.732;-121.358;2023-08-24T13:05:39;5.68;;;4.05;;
49784;SDS011;35679;38.732;-121.358;2023-08-24T13:08:29;11.43;;;4.18;;
49784;SDS011;35679;38.732;-121.358;2023-08-24T13:11:19;4.93;;;4.43;;
49784;SDS011;35679;38.732;-121.358;2023-08-24T13:14:09;6.38;;;4.60;;
49784;SDS011;35679;38.732;-121.358;2023-08-24T13:17:01;5.88;;;4.68;;
49784;SDS011;35679;38.732;-121.358;2023-08-24T13:19:51;4.97;;;4.30;;
49784;SDS011;35679;38.732;-121.358;2023-08-24T13:22:40;5.30;;;3.92;;
49784;SDS011;35679;38.732;-121.358;2023-08-24T13:25:30;5.65;;;4.10;;
49784;SDS011;35679;38.732;-121.358;2023-08-24T13:28:19;5.95;;;4.40;;
49784;SDS011;35679;38.732;-121.358;2023-08-24T13:31:09;6.18;;;4.07;;
49784;SDS011;35679;38.732;-121.358;2023-08-24T13:33:58;6.00;;;4.22;;
49784;SDS011;35679;38.732;-121.358;2023-08-24T13:36:48;4.85;;;4.03;;
49784;SDS011;35679;38.732;-121.358;2023-08-24T13:39:37;8.95;;;4.65;;
49784;SDS011;35679;38.732;-121.358;2023-08-24T13:42:27;8.45;;;4.85;;
49784;SDS011;35679;38.732;-121.358;2023-08-24T13:45:16;8.00;;;5.85;;
49784;SDS011;35679;38.732;-121.358;2023-08-24T13:48:06;10.57;;;4.78;;
49784;SDS011;35679;38.732;-121.358;2023-08-24T13:50:56;9.95;;;5.18;;
49784;SDS011;35679;38.732;-121.358;2023-08-24T13:53:46;7.63;;;4.57;;
49784;SDS011;35679;38.732;-121.358;2023-08-24T13:56:36;6.80;;;4.50;;
49784;SDS011;35679;38.732;-121.358;2023-08-24T13:59:25;9.13;;;4.90;;
49784;SDS011;35679;38.732;-121.358;2023-08-24T14:02:15;6.28;;;4.50;;
49784;SDS011;35679;38.732;-121.358;2023-08-24T14:05:04;6.88;;;4.80;;
49784;SDS011;35679;38.732;-121.358;2023-08-24T14:07:57;6.40;;;4.63;;
49784;SDS011;35679;38.732;-121.358;2023-08-24T14:10:47;5.57;;;4.50;;
49784;SDS011;35679;38.732;-121.358;2023-08-24T14:13:37;7.75;;;4.47;;
49784;SDS011;35679;38.732;-121.358;2023-08-24T14:16:26;7.00;;;4.53;;
49784;SDS011;35679;38.732;-121.358;2023-08-24T14:19:16;6.95;;;4.03;;
49784;SDS011;35679;38.732;-121.358;2023-08-24T14:22:05;6.28;;;5.00;;
49784;SDS011;35679;38.732;-121.358;2023-08-24T14:24:54;8.13;;;4.85;;
49784;SDS011;35679;38.732;-121.358;2023-08-24T14:27:44;7.80;;;4.53;;
49784;SDS011;35679;38.732;-121.358;2023-08-24T14:30:51;6.93;;;4.60;;
49784;SDS011;35679;38.732;-121.358;2023-08-24T14:33:40;8.88;;;4.38;;
49784;SDS011;35679;38.732;-121.358;2023-08-24T14:36:29;11.00;;;4.80;;
49784;SDS011;35679;38.732;-121.358;2023-08-24T14:39:19;6.38;;;4.72;;
49784;SDS011;35679;38.732;-121.358;2023-08-24T14:42:09;7.18;;;4.28;;
49784;SDS011;35679;38.732;-121.358;2023-08-24T14:44:58;10.10;;;4.63;;
49784;SDS011;35679;38.732;-121.358;2023-08-24T14:47:47;7.95;;;5.30;;
49784;SDS011;35679;38.732;-121.358;2023-08-24T14:50:38;7.00;;;5.50;;
49784;SDS011;35679;38.732;-121.358;2023-08-24T14:53:28;9.05;;;5.22;;
49784;SDS011;35679;38.732;-121.358;2023-08-24T14:56:18;16.35;;;5.50;;
49784;SDS011;35679;38.732;-121.358;2023-08-24T14:59:07;8.20;;;5.20;;
49784;SDS011;35679;38.732;-121.358;2023-08-24T15:01:57;11.38;;;5.43;;
49784;SDS011;35679;38.732;-121.358;2023-08-24T15:04:49;11.43;;;5.55;;
49784;SDS011;35679;38.732;-121.358;2023-08-24T15:07:38;8.77;;;5.03;;
49784;SDS011;35679;38.732;-121.358;2023-08-24T15:10:28;6.22;;;4.60;;
49784;SDS011;35679;38.732;-121.358;2023-08-24T15:13:17;7.85;;;4.88;;
49784;SDS011;35679;38.732;-121.358;2023-08-24T15:16:06;7.72;;;4.65;;
49784;SDS011;35679;38.732;-121.358;2023-08-24T15:18:58;5.63;;;5.00;;
49784;SDS011;35679;38.732;-121.358;2023-08-24T15:21:47;7.07;;;4.72;;
49784;SDS011;35679;38.732;-121.358;2023-08-24T15:24:36;7.05;;;4.70;;
49784;SDS011;35679;38.732;-121.358;2023-08-24T15:27:27;7.30;;;4.72;;
49784;SDS011;35679;38.732;-121.358;2023-08-24T15:30:17;7.90;;;4.68;;
49784;SDS011;35679;38.732;-121.358;2023-08-24T15:33:06;7.40;;;4.60;;
49784;SDS011;35679;38.732;-121.358;2023-08-24T15:35:58;7.30;;;5.00;;
49784;SDS011;35679;38.732;-121.358;2023-08-24T15:38:47;5.25;;;4.07;;
49784;SDS011;35679;38.732;-121.358;2023-08-24T15:41:37;7.50;;;4.30;;
49784;SDS011;35679;38.732;-121.358;2023-08-24T15:44:26;6.60;;;4.75;;
49784;SDS011;35679;38.732;-121.358;2023-08-24T15:47:15;7.90;;;4.82;;
49784;SDS011;35679;38.732;-121.358;2023-08-24T15:50:05;7.25;;;4.72;;
49784;SDS011;35679;38.732;-121.358;2023-08-24T15:52:55;5.07;;;4.53;;
49784;SDS011;35679;38.732;-121.358;2023-08-24T15:55:49;6.68;;;4.22;;
49784;SDS011;35679;38.732;-121.358;2023-08-24T15:58:39;5.68;;;4.65;;
49784;SDS011;35679;38.732;-121.358;2023-08-24T16:01:28;4.85;;;4.40;;
49784;SDS011;35679;38.732;-121.358;2023-08-24T16:04:18;5.07;;;4.57;;
49784;SDS011;35679;38.732;-121.358;2023-08-24T16:07:07;5.15;;;4.50;;
49784;SDS011;35679;38.732;-121.358;2023-08-24T16:09:56;9.68;;;4.90;;
49784;SDS011;35679;38.732;-121.358;2023-08-24T16:12:46;6.05;;;4.72;;
49784;SDS011;35679;38.732;-121.358;2023-08-24T16:15:35;5.65;;;4.65;;
49784;SDS011;35679;38.732;-121.358;2023-08-24T16:18:25;13.32;;;5.20;;
49784;SDS011;35679;38.732;-121.358;2023-08-24T16:21:15;4.78;;;4.32;;
49784;SDS011;35679;38.732;-121.358;2023-08-24T16:24:04;5.13;;;4.63;;
49784;SDS011;35679;38.732;-121.358;2023-08-24T16:26:54;5.25;;;4.70;;
49784;SDS011;35679;38.732;-121.358;2023-08-24T16:29:43;7.00;;;4.75;;
49784;SDS011;35679;38.732;-121.358;2023-08-24T16:32:32;5.38;;;4.75;;